Time;durP1;ratioP1;P1;durP2;ratioP2;P2;SDS_P1;SDS_P2;PMS_P1;PMS_P2;Temp;Humidity;BMP_temperature;BMP_pressure;BME280_temperature;BME280_humidity;BME280_pressure;Samples;Min_cycle;Max_cycle;Signal;HPM_P1;HPM_P2
2024/02/10 00:01:36;;;;;;;31.80;15.80;;;;;;;7.06;98.84;98012.61;129826;1263;114927;-60
2024/02/10 00:04:38;;;;;;;36.50;17.00;;;;;;;7.06;98.96;98004.98;130085;1261;114769;-60
2024/02/10 00:07:45;;;;;;;30.90;14.60;;;;;;;7.06;98.90;98002.12;129797;1278;129053;-61
2024/02/10 00:10:47;;;;;;;34.60;15.70;;;;;;;7.05;98.47;97996.88;129944;1275;114760;-61
2024/02/10 00:13:51;;;;;;;24.20;13.80;;;;;;;7.04;98.62;98000.52;129860;1258;114654;-65
2024/02/10 00:16:53;;;;;;;28.40;13.60;;;;;;;7.02;98.72;98004.02;129924;1257;114774;-64
2024/02/10 00:19:55;;;;;;;32.50;17.70;;;;;;;7.01;98.29;98011.95;129857;1259;115078;-64
2024/02/10 00:22:58;;;;;;;30.00;15.40;;;;;;;6.99;98.29;98014.90;129945;1259;114757;-65
2024/02/10 00:26:03;;;;;;;30.10;14.70;;;;;;;6.95;98.20;98011.93;129821;1259;114729;-65
2024/02/10 00:29:05;;;;;;;27.60;15.80;;;;;;;6.95;98.41;98016.41;129803;1259;114730;-61
2024/02/10 00:32:09;;;;;;;32.20;17.70;;;;;;;6.94;98.53;98012.27;129768;1259;114746;-61
2024/02/10 00:35:11;;;;;;;35.00;16.90;;;;;;;6.93;98.53;98017.23;129803;1257;114779;-61
2024/02/10 00:38:14;;;;;;;31.70;17.50;;;;;;;6.93;98.52;98018.54;129594;1259;114701;-61
2024/02/10 00:41:28;;;;;;;28.80;16.30;;;;;;;6.92;98.60;98024.63;129803;1260;114729;-62
2024/02/10 00:44:30;;;;;;;29.60;15.60;;;;;;;6.90;98.36;98024.91;129755;1257;114705;-61
2024/02/10 00:47:34;;;;;;;33.20;16.60;;;;;;;6.89;98.35;98026.27;129922;1259;115446;-64
2024/02/10 00:50:36;;;;;;;32.60;16.40;;;;;;;6.88;98.16;98026.33;129956;1278;114827;-64
2024/02/10 00:53:41;;;;;;;34.90;19.90;;;;;;;6.86;98.20;98026.14;129938;1259;114788;-60
2024/02/10 00:56:43;;;;;;;45.40;23.80;;;;;;;6.84;98.08;98027.30;129800;1259;114785;-63
2024/02/10 00:59:46;;;;;;;42.60;22.90;;;;;;;6.81;98.06;98026.07;129902;1268;115163;-63
2024/02/10 01:02:49;;;;;;;37.80;20.00;;;;;;;6.79;98.44;98028.55;129947;1271;114699;-64
2024/02/10 01:05:51;;;;;;;36.20;19.80;;;;;;;6.76;98.32;98026.77;129889;1259;115177;-60
2024/02/10 01:08:54;;;;;;;37.30;20.20;;;;;;;6.76;98.34;98029.45;129859;1258;115271;-62
2024/02/10 01:11:56;;;;;;;35.10;20.60;;;;;;;6.76;98.31;98027.31;129617;1263;114888;-65
2024/02/10 01:14:58;;;;;;;30.40;18.50;;;;;;;6.76;98.32;98028.42;129871;1259;114701;-65
2024/02/10 01:18:01;;;;;;;34.40;20.60;;;;;;;6.74;98.52;98026.22;129673;1261;114923;-63
2024/02/10 01:21:04;;;;;;;35.90;19.80;;;;;;;6.74;98.30;98025.36;129844;1278;114844;-62
2024/02/10 01:24:06;;;;;;;33.00;18.90;;;;;;;6.73;98.46;98025.62;129750;1267;114702;-61
2024/02/10 01:27:10;;;;;;;34.50;18.60;;;;;;;6.71;98.27;98028.96;129813;1257;198920;-61
2024/02/10 01:30:13;;;;;;;29.80;17.30;;;;;;;6.68;98.34;98027.89;129831;1255;115382;-61
2024/02/10 01:33:15;;;;;;;35.00;16.80;;;;;;;6.66;98.17;98028.41;129934;1258;116360;-62
2024/02/10 01:36:19;;;;;;;30.50;16.40;;;;;;;6.64;98.18;98019.31;130226;1257;114741;-62
2024/02/10 01:39:21;;;;;;;27.10;15.90;;;;;;;6.63;98.41;98017.73;129663;1262;114843;-65
2024/02/10 01:42:39;;;;;;;30.40;18.40;;;;;;;6.65;98.34;98015.69;129805;1261;115272;-62
2024/02/10 01:45:42;;;;;;;;;;;;;;;6.65;98.35;98014.64;130003;1259;114732;-61
2024/02/10 01:48:45;;;;;;;28.90;15.40;;;;;;;6.63;98.32;98018.33;129992;1257;114918;-62
2024/02/10 01:51:47;;;;;;;29.70;15.40;;;;;;;6.63;98.57;98022.55;129716;1260;114751;-61
2024/02/10 01:54:49;;;;;;;30.80;15.80;;;;;;;6.65;98.73;98023.82;129750;1278;114741;-62
2024/02/10 01:57:57;;;;;;;30.90;17.80;;;;;;;6.68;98.78;98023.42;129450;1264;114803;-66
2024/02/10 02:00:59;;;;;;;30.40;15.10;;;;;;;6.72;98.97;98023.56;129928;1258;128874;-64
2024/02/10 02:04:04;;;;;;;32.10;16.60;;;;;;;6.74;99.03;98023.05;129991;1257;114770;-65
2024/02/10 02:07:10;;;;;;;26.90;15.00;;;;;;;6.75;98.82;98025.83;129745;1261;114754;-66
2024/02/10 02:10:13;;;;;;;32.60;16.20;;;;;;;6.77;98.86;98027.83;129766;1256;114790;-61
2024/02/10 02:13:22;;;;;;;27.20;15.40;;;;;;;6.79;98.87;98027.80;129778;1256;115091;-61
2024/02/10 02:16:26;;;;;;;29.40;14.90;;;;;;;6.82;99.00;98024.44;129615;1278;128177;-61
2024/02/10 02:19:29;;;;;;;27.70;14.20;;;;;;;6.85;99.10;98030.97;129891;1256;114723;-61
2024/02/10 02:22:31;;;;;;;30.70;14.80;;;;;;;6.87;99.04;98032.21;129818;1259;114735;-63
2024/02/10 02:25:34;;;;;;;27.10;15.40;;;;;;;6.90;98.94;98028.88;129794;1257;115516;-63
2024/02/10 02:28:37;;;;;;;27.40;13.90;;;;;;;6.91;99.12;98033.70;129898;1257;114689;-61
2024/02/10 02:31:39;;;;;;;28.10;14.20;;;;;;;6.92;98.93;98035.94;129906;1259;114731;-60
2024/02/10 02:34:42;;;;;;;24.70;13.20;;;;;;;6.94;99.10;98037.64;129952;1259;115414;-61
2024/02/10 02:37:44;;;;;;;26.80;16.30;;;;;;;6.96;98.96;98039.41;129780;1259;114710;-61
2024/02/10 02:40:46;;;;;;;29.00;16.10;;;;;;;6.96;99.07;98039.97;129802;1259;115249;-60
2024/02/10 02:43:49;;;;;;;27.30;14.70;;;;;;;6.96;98.95;98043.13;129946;1278;114735;-60
2024/02/10 02:46:54;;;;;;;25.30;13.70;;;;;;;6.98;99.34;98041.57;129598;1256;114814;-60
2024/02/10 02:49:56;;;;;;;25.20;14.60;;;;;;;6.99;99.20;98039.19;129449;1278;114711;-60
2024/02/10 02:53:02;;;;;;;26.00;14.00;;;;;;;7.00;98.92;98046.20;129793;1255;114712;-60
2024/02/10 02:56:08;;;;;;;22.50;13.50;;;;;;;7.00;99.24;98044.44;129580;1278;114887;-65
2024/02/10 02:59:10;;;;;;;21.70;14.30;;;;;;;7.01;98.98;98044.59;129665;1260;114926;-63
2024/02/10 03:02:12;;;;;;;24.90;15.70;;;;;;;7.02;99.19;98050.50;129775;1260;114710;-62
2024/02/10 03:05:21;;;;;;;27.00;14.50;;;;;;;7.04;99.37;98052.70;129809;1259;114921;-60
2024/02/10 03:08:23;;;;;;;27.60;17.50;;;;;;;7.05;99.56;98048.40;129731;1259;114710;-60
2024/02/10 03:11:26;;;;;;;26.90;15.70;;;;;;;7.05;99.15;98050.99;129860;1259;114703;-63
2024/02/10 03:14:28;;;;;;;26.00;15.00;;;;;;;7.05;99.24;98056.31;129561;1276;114714;-60
2024/02/10 03:17:31;;;;;;;27.90;16.30;;;;;;;7.05;99.30;98058.61;129795;1259;114720;-65
2024/02/10 03:20:35;;;;;;;28.60;16.90;;;;;;;7.06;99.24;98055.03;129820;1259;114838;-63
2024/02/10 03:23:37;;;;;;;28.50;16.90;;;;;;;7.06;99.27;98056.09;129915;1260;114780;-67
2024/02/10 03:26:39;;;;;;;26.50;16.00;;;;;;;7.05;99.28;98060.80;129973;1272;115180;-61
2024/02/10 03:29:41;;;;;;;33.80;17.80;;;;;;;7.05;99.48;98062.04;129919;1278;128827;-60
2024/02/10 03:32:44;;;;;;;27.90;17.00;;;;;;;7.04;99.35;98062.63;129872;1278;114767;-60
2024/02/10 03:35:47;;;;;;;34.20;19.60;;;;;;;7.03;99.19;98064.45;129849;1255;115078;-60
2024/02/10 03:38:53;;;;;;;34.80;18.80;;;;;;;7.03;99.20;98063.43;129923;1259;114768;-61
2024/02/10 03:41:55;;;;;;;33.60;20.70;;;;;;;7.02;99.35;98064.20;129904;1272;114732;-61
2024/02/10 03:44:57;;;;;;;35.40;20.30;;;;;;;7.00;99.29;98068.92;129809;1257;114785;-64
2024/02/10 03:48:07;;;;;;;36.20;20.00;;;;;;;6.98;99.40;98066.44;130085;1256;115426;-66
2024/02/10 03:51:11;;;;;;;35.10;19.80;;;;;;;6.94;99.59;98071.82;129694;1261;114881;-62
2024/02/10 03:54:13;;;;;;;39.40;22.60;;;;;;;6.92;99.41;98067.21;129652;1262;114792;-61
2024/02/10 03:57:15;;;;;;;34.50;21.10;;;;;;;6.90;99.47;98070.52;129832;1259;114789;-61
2024/02/10 04:00:20;;;;;;;30.60;20.20;;;;;;;6.90;99.61;98072.14;129943;1267;114908;-61
2024/02/10 04:03:27;;;;;;;33.70;20.40;;;;;;;6.91;99.84;98076.52;129667;1259;116357;-67
2024/02/10 04:06:30;;;;;;;40.90;20.50;;;;;;;6.91;99.91;98076.99;129831;1255;128901;-60
2024/02/10 04:09:32;;;;;;;34.30;19.50;;;;;;;6.91;99.54;98078.13;129976;1258;115434;-61
2024/02/10 04:12:35;;;;;;;35.00;19.80;;;;;;;6.89;99.68;98073.58;129991;1255;115081;-61
2024/02/10 04:15:37;;;;;;;36.10;23.30;;;;;;;6.87;99.70;98071.44;130015;1259;114783;-61
2024/02/10 04:18:40;;;;;;;35.60;21.60;;;;;;;6.86;99.79;98068.89;129768;1263;114832;-66
2024/02/10 04:21:42;;;;;;;31.30;18.60;;;;;;;6.85;99.87;98067.34;129821;1257;114814;-66
2024/02/10 04:24:45;;;;;;;30.60;18.80;;;;;;;6.86;99.82;98063.54;129726;1257;114806;-61
2024/02/10 04:27:48;;;;;;;38.00;21.80;;;;;;;6.88;99.97;98057.89;129817;1259;114757;-61
2024/02/10 04:30:52;;;;;;;39.10;21.70;;;;;;;6.89;99.75;98053.95;129863;1259;114747;-61
2024/02/10 04:33:53;;;;;;;37.40;21.50;;;;;;;6.90;99.79;98047.84;129868;1256;114773;-61
2024/02/10 04:36:55;;;;;;;33.60;20.40;;;;;;;6.91;99.62;98045.27;129771;1270;114742;-60
2024/02/10 04:39:58;;;;;;;38.10;23.10;;;;;;;6.90;99.87;98041.95;129830;1257;114869;-61
2024/02/10 04:43:01;;;;;;;33.80;21.00;;;;;;;6.90;99.93;98038.75;129724;1259;114916;-60
2024/02/10 04:46:03;;;;;;;36.50;21.00;;;;;;;6.91;99.94;98040.50;129869;1275;114770;-61
2024/02/10 04:49:06;;;;;;;33.80;19.80;;;;;;;6.91;99.97;98036.91;129838;1278;114776;-62
2024/02/10 04:52:08;;;;;;;32.00;21.60;;;;;;;6.91;99.92;98034.96;129855;1259;114708;-60
2024/02/10 04:55:13;;;;;;;34.00;19.10;;;;;;;6.90;99.68;98034.00;129677;1264;114773;-60
2024/02/10 04:58:15;;;;;;;29.00;19.50;;;;;;;6.87;99.88;98034.73;129586;1257;114829;-63
2024/02/10 05:01:20;;;;;;;32.30;20.90;;;;;;;6.87;99.96;98033.52;129742;1257;114758;-61
2024/02/10 05:04:22;;;;;;;32.50;19.70;;;;;;;6.86;99.94;98027.52;129516;1264;128243;-62
2024/02/10 05:07:24;;;;;;;33.70;19.50;;;;;;;6.86;99.82;98024.17;129842;1259;114808;-60
2024/02/10 05:10:26;;;;;;;31.30;19.00;;;;;;;6.84;99.94;98022.84;129615;1265;114856;-61
2024/02/10 05:13:30;;;;;;;32.90;20.50;;;;;;;6.84;100.00;98026.08;129566;1257;114709;-63
2024/02/10 05:16:32;;;;;;;30.60;19.00;;;;;;;6.84;99.80;98034.25;129895;1256;114769;-61
2024/02/10 05:19:35;;;;;;;28.40;17.80;;;;;;;6.81;99.88;98035.80;129757;1259;114682;-62
2024/02/10 05:22:38;;;;;;;28.90;17.40;;;;;;;6.79;99.74;98035.08;129734;1259;114883;-61
2024/02/10 05:25:40;;;;;;;29.50;18.90;;;;;;;6.77;99.56;98032.62;129884;1259;114740;-60
2024/02/10 05:28:43;;;;;;;28.90;17.10;;;;;;;6.73;99.47;98035.69;129788;1259;114810;-60
2024/02/10 05:31:47;;;;;;;28.00;19.00;;;;;;;6.70;99.61;98036.98;129641;1262;114890;-60
2024/02/10 05:34:49;;;;;;;72.20;50.80;;;;;;;6.65;99.54;98026.14;129593;1261;114744;-60
2024/02/10 05:37:53;;;;;;;32.40;20.20;;;;;;;6.63;99.81;98026.25;129745;1259;114815;-61
2024/02/10 05:40:55;;;;;;;31.50;17.90;;;;;;;6.62;99.87;98029.77;129839;1259;114704;-65
2024/02/10 05:43:57;;;;;;;32.60;22.60;;;;;;;6.60;99.80;98027.92;129860;1256;114725;-60
2024/02/10 05:47:00;;;;;;;30.50;18.40;;;;;;;6.58;99.86;98024.68;129799;1259;114706;-60
2024/02/10 05:50:12;;;;;;;25.60;15.80;;;;;;;6.57;99.93;98026.35;129814;1259;114808;-61
2024/02/10 05:53:14;;;;;;;54.50;39.80;;;;;;;6.54;99.98;98022.25;129767;1259;115288;-60
2024/02/10 05:56:16;;;;;;;35.50;22.60;;;;;;;6.53;99.93;98023.45;129712;1257;115167;-60
2024/02/10 05:59:19;;;;;;;34.40;24.10;;;;;;;6.50;99.97;98018.85;129768;1257;115778;-60
2024/02/10 06:02:24;;;;;;;30.40;21.70;;;;;;;6.48;99.97;98017.73;129617;1259;128845;-59
2024/02/10 06:05:26;;;;;;;43.10;32.60;;;;;;;6.46;99.99;98021.81;129767;1259;114677;-61
2024/02/10 06:08:28;;;;;;;32.40;23.10;;;;;;;6.42;99.94;98023.49;129844;1259;114693;-60
2024/02/10 06:11:33;;;;;;;38.50;25.00;;;;;;;6.36;99.83;98031.70;129552;1262;114871;-60
2024/02/10 06:14:37;;;;;;;35.90;22.60;;;;;;;6.31;99.72;98027.07;129555;1278;114847;-60
2024/02/10 06:17:40;;;;;;;24.40;16.20;;;;;;;6.26;99.92;98022.11;129528;1257;115000;-61
2024/02/10 06:20:43;;;;;;;29.00;18.70;;;;;;;6.20;99.93;98024.06;129808;1260;115155;-60
2024/02/10 06:23:45;;;;;;;24.00;14.70;;;;;;;6.15;100.00;98021.29;129817;1259;114720;-60
2024/02/10 06:26:50;;;;;;;32.80;18.00;;;;;;;6.10;100.00;98019.84;129758;1259;115356;-61
2024/02/10 06:29:54;;;;;;;40.10;25.50;;;;;;;6.06;100.00;98017.25;129746;1259;114852;-60
2024/02/10 06:32:57;;;;;;;33.50;19.20;;;;;;;6.04;100.00;98020.20;129768;1259;114706;-60
2024/02/10 06:35:59;;;;;;;25.60;14.20;;;;;;;6.03;100.00;98026.49;129875;1259;114710;-60
2024/02/10 06:39:01;;;;;;;28.70;16.70;;;;;;;6.01;100.00;98032.31;129902;1259;114783;-60
2024/02/10 06:42:04;;;;;;;29.70;17.40;;;;;;;6.00;100.00;98035.02;129843;1271;115113;-61
2024/02/10 06:45:14;;;;;;;27.00;15.40;;;;;;;6.00;100.00;98037.85;129749;1257;114878;-61
2024/02/10 06:48:18;;;;;;;36.60;20.10;;;;;;;6.00;100.00;98039.61;129754;1263;114816;-60
2024/02/10 06:51:21;;;;;;;33.40;22.10;;;;;;;6.01;100.00;98045.21;129777;1259;114795;-61
2024/02/10 06:54:23;;;;;;;32.40;20.80;;;;;;;6.04;100.00;98045.36;129961;1257;114777;-60
2024/02/10 06:57:27;;;;;;;29.10;16.70;;;;;;;6.07;100.00;98048.73;129799;1257;114794;-60
2024/02/10 07:00:37;;;;;;;32.50;19.60;;;;;;;6.11;100.00;98052.54;129843;1259;114754;-61
2024/02/10 07:03:45;;;;;;;22.90;15.20;;;;;;;6.15;100.00;98056.13;129816;1259;114838;-67
2024/02/10 07:06:53;;;;;;;29.50;20.00;;;;;;;6.21;100.00;98058.75;129816;1256;114660;-68
2024/02/10 07:09:59;;;;;;;30.30;18.80;;;;;;;6.30;100.00;98050.59;129577;1261;126988;-69
2024/02/10 07:13:03;;;;;;;27.30;17.70;;;;;;;6.38;100.00;98049.50;129757;1257;114735;-66
2024/02/10 07:16:05;;;;;;;27.10;16.90;;;;;;;6.44;100.00;98049.58;129581;1266;115167;-60
2024/02/10 07:19:08;;;;;;;26.10;18.00;;;;;;;6.48;100.00;98057.64;129988;1259;115302;-64
2024/02/10 07:22:10;;;;;;;24.00;16.90;;;;;;;6.51;100.00;98064.02;129830;1257;115263;-64
2024/02/10 07:25:13;;;;;;;27.30;17.20;;;;;;;6.53;100.00;98067.98;129782;1261;114756;-60
2024/02/10 07:28:19;;;;;;;27.90;17.20;;;;;;;6.56;100.00;98071.29;129702;1268;114769;-60
2024/02/10 07:31:21;;;;;;;33.00;17.90;;;;;;;6.61;100.00;98066.65;129737;1278;114807;-66
2024/02/10 07:34:26;;;;;;;35.70;22.60;;;;;;;6.68;100.00;98064.27;129848;1259;114807;-68
2024/02/10 07:37:29;;;;;;;32.90;19.40;;;;;;;6.76;100.00;98066.90;129519;1257;116337;-61
2024/02/10 07:40:31;;;;;;;29.20;19.80;;;;;;;6.84;100.00;98071.46;129858;1259;114716;-65
2024/02/10 07:43:34;;;;;;;33.70;18.90;;;;;;;6.96;100.00;98070.45;129905;1259;115422;-64
2024/02/10 07:46:37;;;;;;;26.40;15.30;;;;;;;7.18;100.00;98072.79;129705;1257;114760;-65
2024/02/10 07:49:44;;;;;;;27.90;16.70;;;;;;;7.48;100.00;98066.77;129829;1260;114703;-60
2024/02/10 07:52:49;;;;;;;19.50;14.20;;;;;;;7.66;100.00;98065.48;129580;1257;114884;-61
2024/02/10 07:55:52;;;;;;;32.00;20.00;;;;;;;7.75;100.00;98063.75;129534;1274;114797;-60
2024/02/10 07:58:58;;;;;;;28.60;19.30;;;;;;;7.85;100.00;98059.82;129815;1278;128964;-67
2024/02/10 08:02:01;;;;;;;32.50;19.50;;;;;;;7.93;100.00;98060.11;129609;1275;114857;-63
2024/02/10 08:05:04;;;;;;;31.80;18.40;;;;;;;8.01;100.00;98060.17;129677;1259;114721;-67
2024/02/10 08:08:09;;;;;;;33.30;21.20;;;;;;;8.12;100.00;98068.67;129787;1259;114745;-63
2024/02/10 08:11:10;;;;;;;30.20;19.90;;;;;;;8.24;100.00;98070.96;129692;1259;114656;-60
2024/02/10 08:14:14;;;;;;;26.30;18.20;;;;;;;8.34;100.00;98067.11;129687;1259;114992;-61
2024/02/10 08:17:20;;;;;;;25.90;16.50;;;;;;;8.42;100.00;98062.11;129767;1259;114742;-60
2024/02/10 08:20:23;;;;;;;29.20;16.50;;;;;;;8.48;100.00;98061.44;129744;1259;114813;-65
2024/02/10 08:23:25;;;;;;;26.40;18.10;;;;;;;8.56;100.00;98066.41;129722;1259;114734;-62
2024/02/10 08:26:27;;;;;;;28.50;16.80;;;;;;;8.63;100.00;98075.63;129755;1270;114705;-60
2024/02/10 08:29:33;;;;;;;29.80;18.00;;;;;;;8.74;100.00;98082.14;129764;1257;114721;-64
2024/02/10 08:32:36;;;;;;;29.70;19.10;;;;;;;8.86;100.00;98083.70;129736;1278;127876;-65
2024/02/10 08:35:39;;;;;;;26.90;16.90;;;;;;;8.96;100.00;98084.81;129702;1262;114810;-61
2024/02/10 08:38:42;;;;;;;29.20;18.80;;;;;;;9.09;100.00;98088.99;129775;1257;114708;-62
2024/02/10 08:41:44;;;;;;;28.60;17.80;;;;;;;9.21;100.00;98097.30;129709;1257;115316;-66
2024/02/10 08:44:50;;;;;;;25.30;18.40;;;;;;;9.32;100.00;98099.98;129751;1259;114710;-66
2024/02/10 08:47:52;;;;;;;28.00;18.30;;;;;;;9.47;100.00;98099.89;129661;1263;114678;-63
2024/02/10 08:50:54;;;;;;;29.10;16.80;;;;;;;9.58;100.00;98104.66;129654;1278;114863;-65
2024/02/10 08:53:56;;;;;;;24.90;16.10;;;;;;;9.72;100.00;98099.98;129841;1259;114821;-61
2024/02/10 08:57:00;;;;;;;22.10;14.90;;;;;;;9.88;100.00;98099.02;129637;1263;114861;-60
2024/02/10 09:00:11;;;;;;;27.10;17.10;;;;;;;10.01;100.00;98096.57;129849;1259;114880;-62
2024/02/10 09:03:14;;;;;;;23.00;17.30;;;;;;;10.12;100.00;98092.07;129734;1259;114786;-60
2024/02/10 09:06:21;;;;;;;23.80;15.40;;;;;;;10.23;100.00;98096.02;129828;1259;114766;-61
2024/02/10 09:09:29;;;;;;;23.70;15.90;;;;;;;10.31;99.99;98104.73;129692;1257;128854;-60
2024/02/10 09:12:31;;;;;;;22.70;15.10;;;;;;;10.41;99.95;98108.77;129733;1259;114916;-64
2024/02/10 09:15:33;;;;;;;22.90;16.20;;;;;;;10.49;100.00;98110.10;129775;1259;114760;-63
2024/02/10 09:18:35;;;;;;;24.10;17.00;;;;;;;10.61;100.00;98111.42;129852;1259;114729;-62
2024/02/10 09:21:37;;;;;;;19.00;13.30;;;;;;;10.77;100.00;98110.98;129631;1262;114856;-62
2024/02/10 09:24:45;;;;;;;17.50;12.50;;;;;;;10.90;99.87;98114.67;129470;1263;114812;-59
2024/02/10 09:27:47;;;;;;;17.40;12.70;;;;;;;10.99;99.57;98115.67;129776;1259;114773;-59
2024/02/10 09:30:49;;;;;;;16.80;12.80;;;;;;;11.08;99.49;98117.23;129658;1263;116374;-60
2024/02/10 09:33:51;;;;;;;16.20;11.70;;;;;;;11.16;99.33;98113.70;129453;1257;114819;-61
2024/02/10 09:36:58;;;;;;;15.90;11.10;;;;;;;11.20;99.08;98109.58;129772;1259;114814;-60
2024/02/10 09:40:02;;;;;;;17.60;12.40;;;;;;;11.21;98.68;98108.59;129688;1262;114845;-60
2024/02/10 09:43:07;;;;;;;16.80;13.30;;;;;;;11.27;99.15;98109.52;129772;1259;115419;-61
2024/02/10 09:46:10;;;;;;;;;;;;;;;11.34;99.43;98107.45;129829;1259;128998;-60
2024/02/10 09:49:13;;;;;;;13.90;10.10;;;;;;;11.42;99.69;98107.30;129805;1270;114738;-61
2024/02/10 09:52:15;;;;;;;15.10;11.00;;;;;;;11.47;99.27;98108.48;129753;1259;114798;-62
2024/02/10 09:55:18;;;;;;;17.80;11.90;;;;;;;11.51;98.67;98103.69;129732;1259;114768;-61
2024/02/10 09:58:20;;;;;;;14.50;9.10;;;;;;;11.59;99.07;98107.21;129759;1268;114718;-61
2024/02/10 10:01:32;;;;;;;14.40;10.40;;;;;;;11.71;98.83;98108.29;129570;1256;114745;-61
2024/02/10 10:04:35;;;;;;;13.60;10.30;;;;;;;11.87;98.77;98112.45;129704;1278;128808;-60
2024/02/10 10:07:37;;;;;;;12.40;9.60;;;;;;;11.97;97.87;98113.28;129763;1269;114805;-65
2024/02/10 10:10:40;;;;;;;11.80;9.00;;;;;;;12.05;97.55;98111.42;129941;1259;114820;-60
2024/02/10 10:13:42;;;;;;;12.10;8.60;;;;;;;12.15;98.13;98107.23;129803;1269;114636;-61
2024/02/10 10:17:00;;;;;;;12.60;8.20;;;;;;;12.27;98.15;98106.48;129786;1278;114809;-60
2024/02/10 10:20:09;;;;;;;10.10;6.70;;;;;;;12.38;97.17;98111.26;129711;1278;114777;-60
2024/02/10 10:23:14;;;;;;;11.50;7.90;;;;;;;12.40;96.46;98113.35;129657;1259;128938;-65
2024/02/10 10:26:18;;;;;;;9.90;7.60;;;;;;;12.47;96.68;98109.52;129751;1272;114916;-63
2024/02/10 10:29:21;;;;;;;7.80;6.30;;;;;;;12.65;97.28;98105.73;129779;1278;114786;-60
2024/02/10 10:32:28;;;;;;;9.40;7.00;;;;;;;12.82;96.67;98100.20;129803;1258;115026;-60
2024/02/10 10:35:31;;;;;;;10.20;9.20;;;;;;;12.95;95.89;98096.05;129654;1257;114719;-60
2024/02/10 10:38:34;;;;;;;11.90;7.40;;;;;;;13.05;95.78;98098.77;129529;1273;114945;-61
2024/02/10 10:41:38;;;;;;;10.00;8.00;;;;;;;13.19;95.86;98098.64;129740;1262;114725;-65
2024/02/10 10:44:42;;;;;;;10.90;8.60;;;;;;;13.29;94.89;98093.75;129636;1260;114788;-66
2024/02/10 10:47:45;;;;;;;10.20;7.10;;;;;;;13.39;94.85;98083.84;129795;1274;114983;-63
2024/02/10 10:50:55;;;;;;;12.80;8.10;;;;;;;13.42;94.24;98075.55;129654;1270;114799;-64
2024/02/10 10:53:59;;;;;;;11.50;7.10;;;;;;;13.41;94.13;98072.98;129751;1254;128983;-62
2024/02/10 10:57:07;;;;;;;12.50;8.30;;;;;;;13.33;93.70;98069.39;129779;1259;115399;-61
2024/02/10 11:00:15;;;;;;;8.50;6.80;;;;;;;13.16;93.07;98065.05;129816;1259;114711;-64
2024/02/10 11:03:17;;;;;;;10.00;6.80;;;;;;;12.95;92.37;98063.36;129856;1262;115315;-62
2024/02/10 11:06:22;;;;;;;9.10;6.70;;;;;;;12.75;92.56;98057.88;129837;1259;114716;-60
2024/02/10 11:09:26;;;;;;;;;;;;;;;12.60;92.95;98057.80;129850;1257;129793;-60
2024/02/10 11:12:34;;;;;;;8.80;6.20;;;;;;;12.53;93.61;98064.44;129770;1276;114694;-63
2024/02/10 11:15:40;;;;;;;8.00;6.30;;;;;;;12.52;93.89;98061.10;129545;1265;114862;-65
2024/02/10 11:18:45;;;;;;;10.00;7.00;;;;;;;12.52;93.93;98053.35;129747;1278;114718;-66
2024/02/10 11:21:47;;;;;;;8.60;6.50;;;;;;;12.51;93.79;98048.52;129519;1278;114917;-64
2024/02/10 11:24:53;;;;;;;8.60;5.60;;;;;;;12.50;93.88;98044.31;129979;1259;114794;-62
2024/02/10 11:27:58;;;;;;;8.50;5.60;;;;;;;12.54;94.19;98041.05;129994;1257;114693;-61
2024/02/10 11:31:09;;;;;;;6.90;4.80;;;;;;;12.56;93.95;98040.08;129734;1262;114770;-60
2024/02/10 11:34:19;;;;;;;6.00;4.90;;;;;;;12.56;93.55;98030.77;129890;1258;114722;-61
2024/02/10 11:37:25;;;;;;;6.30;4.90;;;;;;;12.60;93.78;98029.48;129742;1259;114724;-61
2024/02/10 11:40:27;;;;;;;5.20;3.60;;;;;;;12.64;93.50;98023.25;129640;1260;128440;-61
2024/02/10 11:43:29;;;;;;;8.80;5.10;;;;;;;12.68;93.61;98017.53;129746;1260;114920;-60
2024/02/10 11:46:31;;;;;;;8.90;5.60;;;;;;;12.68;93.31;98014.29;129745;1278;114705;-63
2024/02/10 11:49:35;;;;;;;7.70;5.90;;;;;;;12.69;93.49;98014.52;129718;1259;114815;-62
2024/02/10 11:52:37;;;;;;;8.20;5.50;;;;;;;12.70;92.99;98016.64;129701;1268;115340;-61
2024/02/10 11:55:43;;;;;;;7.90;5.10;;;;;;;12.69;92.70;98019.35;129829;1259;114822;-60
2024/02/10 11:58:47;;;;;;;6.20;4.30;;;;;;;12.69;92.42;98018.46;129567;1278;128572;-60
2024/02/10 12:01:49;;;;;;;12.10;6.90;;;;;;;12.68;92.31;98014.66;129861;1259;114725;-60
2024/02/10 12:04:51;;;;;;;9.30;6.70;;;;;;;12.69;92.70;98010.11;129447;1265;115050;-62
2024/02/10 12:07:53;;;;;;;9.30;5.60;;;;;;;12.73;92.60;98012.76;129790;1268;114702;-60
2024/02/10 12:10:55;;;;;;;6.60;4.40;;;;;;;12.75;92.32;98013.77;129657;1260;116377;-61
2024/02/10 12:13:58;;;;;;;8.70;5.20;;;;;;;12.74;91.95;98015.08;129774;1261;114761;-60
2024/02/10 12:17:01;;;;;;;6.90;5.20;;;;;;;12.77;92.13;98019.74;129751;1278;114724;-64
2024/02/10 12:20:04;;;;;;;8.90;5.50;;;;;;;12.79;91.57;98022.42;129733;1260;115236;-62
2024/02/10 12:23:06;;;;;;;5.80;3.90;;;;;;;12.80;91.38;98022.45;129808;1260;114797;-60
2024/02/10 12:26:09;;;;;;;6.80;5.60;;;;;;;12.84;91.57;98019.60;129773;1268;114817;-64
2024/02/10 12:29:11;;;;;;;8.50;5.30;;;;;;;12.89;91.86;98020.72;129838;1260;114694;-60
2024/02/10 12:32:13;;;;;;;9.30;5.30;;;;;;;12.95;91.76;98019.30;129753;1269;114929;-62
2024/02/10 12:35:19;;;;;;;7.80;5.60;;;;;;;13.00;91.56;98018.55;129900;1256;137780;-62
2024/02/10 12:38:26;;;;;;;8.40;4.80;;;;;;;13.05;91.06;98016.48;129866;1278;128870;-61
2024/02/10 12:41:28;;;;;;;9.20;4.80;;;;;;;13.09;90.99;98018.05;129451;1267;114697;-60
2024/02/10 12:44:31;;;;;;;5.80;4.50;;;;;;;13.15;90.90;98014.30;129781;1259;114935;-61
2024/02/10 12:47:37;;;;;;;12.60;4.80;;;;;;;13.19;90.79;98015.29;129570;1257;115098;-60
2024/02/10 12:50:40;;;;;;;7.20;4.70;;;;;;;13.23;90.44;98010.44;129850;1278;114815;-60
2024/02/10 12:53:43;;;;;;;5.20;4.10;;;;;;;13.24;89.77;98004.62;130088;1260;115146;-61
2024/02/10 12:56:44;;;;;;;5.90;4.20;;;;;;;13.27;89.82;98004.72;129608;1260;114837;-61
2024/02/10 12:59:47;;;;;;;6.60;4.30;;;;;;;13.29;89.37;98008.77;129817;1272;114713;-61
2024/02/10 13:02:50;;;;;;;5.30;3.70;;;;;;;13.31;89.00;98009.89;129525;1260;115152;-63
2024/02/10 13:05:52;;;;;;;5.00;3.20;;;;;;;13.30;88.65;98006.38;129849;1259;114945;-61
2024/02/10 13:08:54;;;;;;;9.10;3.60;;;;;;;13.29;88.42;98007.20;129812;1260;114736;-62
2024/02/10 13:11:56;;;;;;;6.20;3.50;;;;;;;13.29;88.31;98003.80;129837;1278;115156;-61
2024/02/10 13:14:58;;;;;;;5.30;2.70;;;;;;;13.29;88.13;97997.84;129707;1266;129049;-61
2024/02/10 13:18:00;;;;;;;5.30;3.10;;;;;;;13.30;88.21;98001.67;129837;1260;115232;-60
2024/02/10 13:21:03;;;;;;;5.20;3.70;;;;;;;13.29;87.72;98001.26;129847;1258;114965;-61
2024/02/10 13:24:06;;;;;;;4.90;3.40;;;;;;;13.30;87.68;98001.54;129677;1263;114823;-61
2024/02/10 13:27:08;;;;;;;7.30;3.00;;;;;;;13.31;87.29;98003.76;129680;1278;278590;-61
2024/02/10 13:30:13;;;;;;;4.40;2.50;;;;;;;13.28;86.87;98005.99;129770;1267;114668;-61
2024/02/10 13:33:15;;;;;;;5.10;3.40;;;;;;;13.29;86.89;98005.41;129778;1278;114806;-61
2024/02/10 13:36:21;;;;;;;4.40;2.90;;;;;;;13.31;86.82;98004.34;129776;1260;114731;-62
2024/02/10 14:05:48;;;;;;;5.50;3.40;;;;;;;13.20;85.26;98001.25;129691;1270;114648;-66
2024/02/10 14:08:51;;;;;;;6.50;3.00;;;;;;;13.20;85.26;98003.23;129632;1276;128612;-62
2024/02/10 14:11:55;;;;;;;4.40;3.10;;;;;;;13.19;84.91;98003.66;129995;1278;114800;-61
2024/02/10 14:14:57;;;;;;;6.60;2.90;;;;;;;13.20;84.79;98002.47;129851;1259;114721;-65
2024/02/10 14:18:00;;;;;;;5.40;3.00;;;;;;;13.22;84.46;97998.35;129802;1278;114828;-66
2024/02/10 14:21:38;;;;;;;5.50;3.20;;;;;;;13.22;84.23;97998.87;129856;1260;114856;-61